Nearby METAR Reports

 

KSJC - San Jose, California, USA
Distance from station: NE 9mi, 14km
Updated: Sat, 31-Jul-2021 8:53am CDT
Few Clouds
Few Clouds
 Wind from SSE
Wind: SSE 10 mph , 17 km/h
Temperature: 61°F , 16°C
Dew Point: 54°F , 12°C
Humidity: 77%
Barometer: 30.00 inHg , 1015.9 hPa
Clouds: Few Clouds
Visibility: 10 miles , 16 km
Cloud details: Few Clouds 1100 ft
Few Clouds 6000 ft
Few Clouds 16000 ft
2021/07/31 13:53 KSJC 311353Z 16009KT 10SM FEW011 FEW060 FEW160 16/12 A3000 RMK AO2 SLP158 T01610122
KNUQ - Moffett Nas/Mtn, California, USA
Distance from station: N 9mi, 14km
Updated: Sat, 31-Jul-2021 9:10am CDT
Mostly cloudy
Mostly cloudy
 Wind from calm
Wind: Calm
Temperature: 63°F , 17°C
Dew Point: 59°F , 15°C
Humidity: 88%
Barometer: 30.01 inHg , 1016.3 hPa
Clouds: Mostly cloudy
Visibility: 7 miles , 11 km
Cloud details: Mostly cloudy 1100 ft
2021/07/31 14:10 KNUQ 311410Z AUTO 00000KT 7SM BKN011 17/15 A3001 RMK AO2
 
KPAO - Palo Alto, California, USA
Distance from station: NNW 14mi, 23km
Updated: Sat, 31-Jul-2021 8:47am CDT
Mostly cloudy
Mostly cloudy
 Wind from varies
Wind: varies 5 mph , 7 km/h
Temperature: 63°F , 17°C
Dew Point: 57°F , 14°C
Humidity: 83%
Barometer: 30.01 inHg , 1016.3 hPa
Clouds: Mostly cloudy
Visibility: 8 miles , 13 km
Cloud details: Mostly cloudy 1200 ft
2021/07/31 13:47 KPAO 311347Z VRB04KT 8SM BKN012 17/14 A3001
KRHV - San Jose/Reid, California, USA
Distance from station: ENE 12mi, 19km
Updated: Sat, 31-Jul-2021 8:55am CDT
Few Clouds
Few Clouds
 Wind from varies
Wind: varies 5 mph , 7 km/h
Temperature: 61°F , 16°C
Dew Point: 55°F , 13°C
Humidity: 83%
Barometer: 30.01 inHg , 1016.3 hPa
Clouds: Few Clouds
Visibility: 10 miles , 16 km
Cloud details: Few Clouds 15000 ft
2021/07/31 13:55 KRHV 311355Z VRB04KT 10SM FEW150 16/13 A3001
 
KOAK - Oakland, California, USA
Distance from station: NNW 31mi, 50km
Updated: Sat, 31-Jul-2021 8:53am CDT
Overcast
Overcast
 Wind from N
Wind: N 5 mph , 7 km/h
Temperature: 61°F , 16°C
Dew Point: 57°F , 14°C
Humidity: 88%
Barometer: 30.01 inHg , 1016.3 hPa
Clouds: Overcast
Visibility: 10 miles , 16 km
Cloud details: Overcast 900 ft
2021/07/31 13:53 KOAK 311353Z 36004KT 10SM OVC009 16/14 A3001 RMK AO2 SLP160 T01610139
KSQL - San Carlos Airpo, California, USA
Distance from station: NW 21mi, 34km
Updated: Sat, 31-Jul-2021 8:55am CDT
Overcast
Overcast
 Wind from calm
Wind: Calm
Temperature: 63°F , 17°C
Dew Point: 57°F , 14°C
Humidity: 83%
Barometer: 30.01 inHg , 1016.3 hPa
Clouds: Overcast
Visibility: 10 miles , 16 km
Cloud details: Overcast 1200 ft
2021/07/31 13:55 KSQL 311355Z AUTO 00000KT 10SM OVC012 17/14 A3001 RMK AO2
 
KSFO - San Francisco, California, USA
Distance from station: NW 30mi, 49km
Updated: Sat, 31-Jul-2021 9:09am CDT
Partly cloudy
Partly cloudy
 Wind from NW
Wind: NW 6 mph , 9 km/h
Temperature: 61°F , 16°C
Dew Point: 55°F , 13°C
Humidity: 83%
Barometer: 30.00 inHg , 1015.9 hPa
Clouds: Partly cloudy
Visibility: 10 miles , 16 km
Cloud details: Few Clouds 700 ft
Partly cloudy 1100 ft
2021/07/31 14:09 KSFO 311409Z 31005KT 10SM FEW007 SCT011 16/13 A3000 RMK AO2 T01560133 $
KE16 - San Martin, California, USA
Distance from station: ESE 27mi, 43km
Updated: Sat, 31-Jul-2021 8:55am CDT
Overcast
Overcast
 Wind from SSE
Wind: SSE 12 mph , 19 km/h
Temperature: 57°F , 14°C
Dew Point: 55°F , 13°C
Humidity: 94%
Barometer: 30.04 inHg , 1017.3 hPa
Clouds: Overcast
Visibility: 10 miles , 16 km
Cloud details: Overcast 300 ft
2021/07/31 13:55 KE16 311355Z AUTO 15010KT 10SM OVC003 14/13 A3004 RMK AO2
 
KWVI - Watsonville, California, USA
Distance from station: SSE 27mi, 44km
Updated: Sat, 31-Jul-2021 9:12am CDT
Mist, Overcast
Mist, Overcast
 Wind from calm
Wind: Calm
Temperature: 59°F , 15°C
Dew Point: 57°F , 14°C
Humidity: 94%
Barometer: 30.05 inHg , 1017.6 hPa
Summary: Mist
Clouds: Overcast
Visibility: 2 miles , 3 km
Cloud details: Overcast 300 ft
2021/07/31 14:12 KWVI 311412Z AUTO 00000KT 2SM BR OVC003 15/14 A3005 RMK AO2 RAB1358E09 P0001 T01500139
KHAF - Half Moon Bay, California, USA
Distance from station: WNW 31mi, 50km
Updated: Fri, 09-Jul-2021 9:35am CDT
NOT Current
Light rain, Clear
Light rain, Clear
 
Temperature: 55°F , 13°C
Dew Point: 54°F , 12°C
Humidity: 94%
Barometer: 29.91 inHg , 1012.9 hPa
Summary: Light rain
Clouds: Clear
Visibility: 4 miles , 6 km
2021/07/09 14:35 KHAF 091435Z AUTO 4SM -RA CLR 13/12 A2991 RMK AO2
 
KHWD - Hayward, California, USA
Distance from station: N 28mi, 44km
Updated: Sat, 31-Jul-2021 8:54am CDT
Mostly cloudy
Mostly cloudy
 Wind from N
Wind: N 6 mph , 9 km/h
Temperature: 61°F , 16°C
Dew Point: 55°F , 13°C
Humidity: 83%
Barometer: 30.00 inHg , 1015.9 hPa
Clouds: Mostly cloudy
Visibility: 10 miles , 16 km
Cloud details: Mostly cloudy 900 ft
2021/07/31 13:54 KHWD 311354Z 35005KT 10SM BKN009 16/13 A3000 RMK AO2 SLP167 T01610133
KLVK - Livermore, California, USA
Distance from station: NNE 31mi, 51km
Updated: Sat, 31-Jul-2021 8:53am CDT
Clear
Clear
 Wind from WNW
Wind: WNW 9 mph , 15 km/h
Temperature: 63°F , 17°C
Dew Point: 55°F , 13°C
Humidity: 77%
Barometer: 29.98 inHg , 1015.2 hPa
Clouds: Clear
Visibility: 10 miles , 16 km
2021/07/31 13:53 KLVK 311353Z 29008KT 10SM CLR 17/13 A2998 RMK AO2 SLP148 T01670128